Koppie Airport

Jump to: basic info | weather | runways | comments

Related pages: nearby airports | nearby navaids | notams | map

Basic information (top)

Codes: 7IS5
Location: lon 42.121399, lat -88.378098, elev 890 ft / 271 m msl
Status: small_airport

Weather (top)

Current conditions for Dupage Airport 14nm (26km) SSE (rec'd 2014/04/20 14:52Z):

KDPA 201452Z 18012KT 10SM CLR 17/02 A3020 RMK AO2 SLP225 T01670022 58010

Airport forecast for Dupage Airport 14nm (26km) SSE (rec'd 2014/04/20 12:30Z):

TAF KDPA 201128Z 2012/2112 18010KT P6SM BKN300 
     FM201600 20012KT P6SM FEW150 BKN250 
     FM210100 19007KT P6SM BKN150

Runways (top)

N/S: 2,300 x 100 ft (701 x 30 m) — grass — not lighted

Latest comments (top)

No comments yet for Koppie Airport

More... (top)

See also NOTAMs and nearby airports and navaids, or visit the Koppie Airport page at the main OurAirports website..